createdAt,value
2022-10-19T00:00:05.107Z,4.1
2022-10-19T00:05:05.099Z,4.1
2022-10-19T00:10:05.092Z,4.1
2022-10-19T00:15:05.102Z,4.1
2022-10-19T00:20:05.102Z,4.7
2022-10-19T00:25:05.105Z,5.5
2022-10-19T00:30:05.100Z,6.5
2022-10-19T00:35:05.091Z,9.3
2022-10-19T00:40:05.102Z,9.8
2022-10-19T00:45:05.093Z,9.8
2022-10-19T00:50:05.096Z,11.1
2022-10-19T00:55:05.089Z,10.4
2022-10-19T01:00:05.096Z,9.2
2022-10-19T01:05:05.094Z,10.4
2022-10-19T01:10:05.099Z,9.5
2022-10-19T01:15:05.097Z,9.5
2022-10-19T01:20:05.103Z,11.1
2022-10-19T01:25:05.094Z,10.7
2022-10-19T01:30:05.096Z,10.8
2022-10-19T01:35:05.092Z,11.5
2022-10-19T01:40:05.102Z,11.8
2022-10-19T01:45:05.107Z,11.8
2022-10-19T01:50:05.097Z,12.2
2022-10-19T01:55:05.087Z,11.3
2022-10-19T02:00:05.111Z,10.7
2022-10-19T02:05:05.094Z,11.2
2022-10-19T02:10:05.145Z,11.1
2022-10-19T02:15:05.090Z,11.1
2022-10-19T02:20:05.109Z,11.7
2022-10-19T02:25:05.100Z,14.1
2022-10-19T02:30:05.102Z,12.5
2022-10-19T02:35:05.102Z,12.8
2022-10-19T02:40:05.107Z,12.8
2022-10-19T02:45:05.107Z,12.8
2022-10-19T02:50:05.099Z,12.4
2022-10-19T02:55:05.107Z,12.3
2022-10-19T03:00:05.103Z,11.1
2022-10-19T03:05:05.111Z,15.1
2022-10-19T03:10:05.111Z,14.6
2022-10-19T03:15:05.107Z,14.6
2022-10-19T03:20:05.090Z,15.3
2022-10-19T03:25:05.094Z,15.5
2022-10-19T03:30:05.102Z,15.8
2022-10-19T03:35:05.104Z,15
2022-10-19T03:40:05.126Z,17.6
2022-10-19T03:45:05.104Z,17.6
2022-10-19T03:50:05.121Z,16.9
2022-10-19T03:55:05.098Z,15.9
2022-10-19T04:00:05.103Z,15.5
2022-10-19T04:05:05.104Z,17.1
2022-10-19T04:10:05.107Z,17.1
2022-10-19T04:15:05.087Z,17.1
2022-10-19T04:20:05.110Z,18.6
2022-10-19T04:25:05.108Z,16.8
2022-10-19T04:30:05.101Z,17.9
2022-10-19T04:35:05.096Z,16.8
2022-10-19T04:40:05.101Z,17.9
2022-10-19T04:45:05.097Z,17.9
2022-10-19T04:50:05.093Z,17.3
2022-10-19T04:55:05.098Z,17.6
2022-10-19T05:00:05.104Z,19.8
2022-10-19T05:05:05.101Z,22
2022-10-19T05:10:05.103Z,19.2
2022-10-19T05:15:05.093Z,19.2
2022-10-19T05:20:05.108Z,16.5
2022-10-19T05:25:05.094Z,18.3
2022-10-19T05:30:05.102Z,17.7
2022-10-19T05:35:05.098Z,17.4
2022-10-19T05:40:05.106Z,16.5
2022-10-19T05:45:05.099Z,16.5
2022-10-19T05:50:05.104Z,16.6
2022-10-19T05:55:05.101Z,19.5
2022-10-19T06:00:05.107Z,20.9
2022-10-19T06:05:05.111Z,20.2
2022-10-19T06:10:05.095Z,21.6
2022-10-19T06:15:05.101Z,21.6
2022-10-19T06:20:05.101Z,23.3
2022-10-19T06:25:05.098Z,22.9
2022-10-19T06:30:05.110Z,23.4
2022-10-19T06:35:05.092Z,23.7
2022-10-19T06:40:07.166Z,22
2022-10-19T06:45:05.096Z,22
2022-10-19T06:50:05.103Z,24.9
2022-10-19T06:55:05.095Z,27.9
2022-10-19T07:00:05.098Z,24
2022-10-19T07:05:07.055Z,23.2
2022-10-19T07:10:05.102Z,24.2
2022-10-19T07:15:05.088Z,24.2
2022-10-19T07:20:05.114Z,25.2
2022-10-19T07:25:05.100Z,26
2022-10-19T07:30:05.102Z,25.4
2022-10-19T07:35:05.094Z,24.8
2022-10-19T07:40:05.097Z,24.9
2022-10-19T07:45:05.095Z,24.9
2022-10-19T07:50:05.109Z,24.5
2022-10-19T07:55:05.094Z,26.1
2022-10-19T08:00:05.121Z,23.7
2022-10-19T08:05:07.603Z,25.1
2022-10-19T08:10:05.110Z,24.9
2022-10-19T08:15:05.089Z,24.9
2022-10-19T08:20:05.093Z,29.8
2022-10-19T08:25:05.096Z,24.5
2022-10-19T08:30:05.102Z,24.6
2022-10-19T08:35:08.455Z,23.2
2022-10-19T08:40:05.111Z,21
2022-10-19T08:45:05.100Z,21
2022-10-19T08:50:05.110Z,23
2022-10-19T08:55:05.168Z,23.3
2022-10-19T09:00:05.113Z,22.6
2022-10-19T09:05:05.102Z,22
2022-10-19T09:10:05.100Z,24.8
2022-10-19T09:15:05.094Z,24.8
2022-10-19T09:20:05.102Z,23.1
2022-10-19T09:25:05.098Z,23
2022-10-19T09:30:05.105Z,20.9
2022-10-19T09:35:05.111Z,22.1
2022-10-19T09:40:05.104Z,20.9
2022-10-19T09:45:05.110Z,20.9
2022-10-19T09:50:05.107Z,20.3
2022-10-19T09:55:05.099Z,19.9
2022-10-19T10:00:05.094Z,19.8
2022-10-19T10:05:05.104Z,19.3
2022-10-19T10:10:05.094Z,20.3
2022-10-19T10:15:05.110Z,20.3
2022-10-19T10:20:05.098Z,19.7
2022-10-19T10:25:05.107Z,19.4
2022-10-19T10:30:05.125Z,20.2
2022-10-19T10:35:05.109Z,21.2
2022-10-19T10:40:05.213Z,20.4
2022-10-19T10:45:05.098Z,20.4
2022-10-19T10:50:05.107Z,21.3
2022-10-19T10:55:05.094Z,21.8
2022-10-19T11:00:05.095Z,20.2
2022-10-19T11:05:05.089Z,20.7
2022-10-19T11:10:05.100Z,19.5
2022-10-19T11:15:05.085Z,19.5
2022-10-19T11:20:05.343Z,18
2022-10-19T11:25:05.095Z,17.4
2022-10-19T11:30:05.107Z,14.6
2022-10-19T11:35:05.095Z,15.3
2022-10-19T11:40:05.114Z,14.5
2022-10-19T11:45:05.101Z,14.5
2022-10-19T11:50:05.170Z,15.4
2022-10-19T11:55:05.121Z,15.8
2022-10-19T12:00:13.416Z,14.8
2022-10-19T12:05:05.107Z,12.6
2022-10-19T12:10:05.117Z,13.7
2022-10-19T12:15:05.093Z,13.7
2022-10-19T12:20:05.114Z,13.2
2022-10-19T12:25:05.096Z,13.5
2022-10-19T12:30:05.112Z,12.2
2022-10-19T12:35:05.098Z,12.3
2022-10-19T12:40:05.113Z,13.6
2022-10-19T12:45:05.103Z,13.6
2022-10-19T12:50:05.185Z,14
2022-10-19T12:55:05.099Z,14.9
2022-10-19T13:00:05.099Z,18.8
2022-10-19T13:05:05.109Z,14.9
2022-10-19T13:10:05.094Z,13.3
2022-10-19T13:15:05.095Z,13.3
2022-10-19T13:20:05.109Z,12.8
2022-10-19T13:25:05.921Z,11.6
2022-10-19T13:30:05.104Z,13.7
2022-10-19T13:35:05.109Z,12.8
2022-10-19T13:40:05.112Z,12.8
2022-10-19T13:45:05.113Z,12.8
2022-10-19T13:50:05.138Z,13.5
2022-10-19T13:55:05.090Z,13.6
2022-10-19T14:00:05.206Z,13.5
2022-10-19T14:05:05.091Z,13.8
2022-10-19T14:10:05.182Z,13.6
2022-10-19T14:15:05.165Z,13.6
2022-10-19T14:20:05.174Z,12.8
2022-10-19T14:25:05.118Z,13.1
2022-10-19T14:30:05.191Z,12.3
2022-10-19T14:40:05.128Z,13.9
2022-10-19T14:45:05.128Z,13.9
2022-10-19T14:50:05.099Z,12.4
2022-10-19T14:55:05.092Z,9.5
2022-10-19T15:00:05.104Z,9.5
2022-10-19T15:05:05.089Z,9.2
2022-10-19T15:10:05.110Z,9
2022-10-19T15:15:05.095Z,9
2022-10-19T15:20:05.165Z,9.8
2022-10-19T15:25:05.088Z,8.9
2022-10-19T15:30:05.116Z,8.5
2022-10-19T15:35:07.581Z,8.5
2022-10-19T15:40:05.096Z,9.5
2022-10-19T15:45:05.100Z,9.5
2022-10-19T15:50:05.102Z,11.8
2022-10-19T15:55:05.092Z,12.9
2022-10-19T16:00:05.100Z,12.9
2022-10-19T16:05:08.152Z,14.6
2022-10-19T16:10:05.098Z,15
2022-10-19T16:15:05.109Z,15
2022-10-19T16:20:05.114Z,16.5
2022-10-19T16:25:05.114Z,16.4
2022-10-19T16:30:05.108Z,15.3
2022-10-19T16:35:05.091Z,15.7
2022-10-19T16:40:05.109Z,15.9
2022-10-19T16:45:05.095Z,15.9
2022-10-19T16:50:05.103Z,15.9
2022-10-19T16:55:05.092Z,18.4
2022-10-19T17:00:05.103Z,17.3
2022-10-19T17:05:05.090Z,17.8
2022-10-19T17:10:05.137Z,15.3
2022-10-19T17:15:30.171Z,15.3
2022-10-19T17:20:05.169Z,16.5
2022-10-19T17:25:05.103Z,16.7
2022-10-19T17:30:05.108Z,17.1
2022-10-19T17:35:05.104Z,17.2
2022-10-19T17:40:05.113Z,16.7
2022-10-19T17:45:05.109Z,16.7
2022-10-19T17:50:05.103Z,14.9
2022-10-19T17:55:11.953Z,15.4
2022-10-19T18:00:05.105Z,15.6
2022-10-19T18:05:05.107Z,14.4
2022-10-19T18:10:05.113Z,13.1
2022-10-19T18:15:05.104Z,13.1
2022-10-19T18:20:05.103Z,12.8
2022-10-19T18:25:05.099Z,12.2
2022-10-19T18:30:05.094Z,12.5
2022-10-19T18:35:05.099Z,12.7
2022-10-19T18:40:05.097Z,11.6
2022-10-19T18:45:05.104Z,11.6
2022-10-19T18:50:05.142Z,12
2022-10-19T18:55:05.101Z,11.7
2022-10-19T19:00:05.106Z,10.1
2022-10-19T19:05:05.104Z,10.1
2022-10-19T19:10:05.108Z,9.3
2022-10-19T19:15:05.099Z,9.3
2022-10-19T19:20:05.104Z,9.5
2022-10-19T19:25:05.112Z,8.9
2022-10-19T19:30:05.096Z,8.9
2022-10-19T19:35:05.097Z,9
2022-10-19T19:40:05.096Z,8.9
2022-10-19T19:45:05.096Z,8.9
2022-10-19T19:50:05.090Z,8.3
2022-10-19T19:55:05.104Z,8.7
2022-10-19T20:00:05.133Z,8.1
2022-10-19T20:05:05.203Z,7.3
2022-10-19T20:10:05.104Z,7.5
2022-10-19T20:15:05.095Z,7.5
2022-10-19T20:20:05.100Z,7.5
2022-10-19T20:25:05.092Z,7.8
2022-10-19T20:30:05.100Z,7.7
2022-10-19T20:35:05.093Z,8.3
2022-10-19T20:40:08.485Z,8.7
2022-10-19T20:45:05.096Z,8.7
2022-10-19T20:50:05.118Z,8.4
2022-10-19T20:55:05.094Z,8.6
2022-10-19T21:00:05.111Z,8.2
2022-10-19T21:05:05.101Z,8.2
2022-10-19T21:10:05.103Z,7.9
2022-10-19T21:15:05.098Z,7.9
2022-10-19T21:20:05.105Z,9
2022-10-19T21:25:05.090Z,8.3
2022-10-19T21:30:05.093Z,8.1
2022-10-19T21:35:05.097Z,8.3
2022-10-19T21:40:05.103Z,8.7
2022-10-19T21:45:25.530Z,8.7
2022-10-19T21:50:05.094Z,8.8
2022-10-19T21:55:05.096Z,8.8
2022-10-19T22:00:05.105Z,9.8
2022-10-19T22:05:05.094Z,9.9
2022-10-19T22:10:05.107Z,9.3
2022-10-19T22:15:05.086Z,9.3
2022-10-19T22:20:05.104Z,10
2022-10-19T22:25:05.092Z,9.8
2022-10-19T22:30:05.102Z,9.5
2022-10-19T22:35:05.153Z,10
2022-10-19T22:40:05.105Z,9.7
2022-10-19T22:45:05.101Z,9.7
2022-10-19T22:50:05.101Z,9.7
2022-10-19T22:55:05.092Z,10.4
2022-10-19T23:00:05.191Z,10.8
2022-10-19T23:05:05.104Z,11.5
2022-10-19T23:10:05.102Z,11.2
2022-10-19T23:15:05.099Z,11.2
2022-10-19T23:20:05.103Z,11.3
2022-10-19T23:25:05.093Z,11.4
2022-10-19T23:30:05.100Z,10.6
2022-10-19T23:35:05.115Z,10.1
2022-10-19T23:40:05.104Z,10.8
2022-10-19T23:45:05.100Z,10.8
2022-10-19T23:50:05.101Z,11.2
2022-10-19T23:55:05.106Z,11.5
